Time;durP1;ratioP1;P1;durP2;ratioP2;P2;SDS_P1;SDS_P2;PMS_P1;PMS_P2;Temp;Humidity;BMP_temperature;BMP_pressure;BME280_temperature;BME280_humidity;BME280_pressure;Samples;Min_cycle;Max_cycle;Signal;HPM_P1;HPM_P2
2022/04/02 00:00:46;;;;;;;5.97;3.53;;;1.10;99.90;;;;;;5118309;28;20119;-64
2022/04/02 00:03:12;;;;;;;4.80;3.30;;;1.00;99.90;;;;;;5117573;28;20090;-65
2022/04/02 00:05:37;;;;;;;9.07;3.83;;;1.00;99.90;;;;;;5118151;28;20473;-63
2022/04/02 00:08:04;;;;;;;10.23;3.90;;;1.00;99.90;;;;;;5082917;28;20119;-64
2022/04/02 00:10:29;;;;;;;8.40;4.28;;;1.00;99.90;;;;;;5099474;28;20043;-64
2022/04/02 00:12:56;;;;;;;8.13;3.55;;;1.00;99.90;;;;;;5083109;28;20044;-65
2022/04/02 00:15:22;;;;;;;6.35;3.95;;;1.00;99.90;;;;;;5099893;28;20082;-65
2022/04/02 00:17:49;;;;;;;7.03;3.47;;;1.00;99.90;;;;;;5099709;28;20056;-65
2022/04/02 00:20:17;;;;;;;7.05;3.70;;;1.00;99.90;;;;;;5117184;28;20635;-63
2022/04/02 00:23:35;;;;;;;8.25;3.47;;;1.00;99.90;;;;;;5117733;28;20152;-65
2022/04/02 00:25:29;;;;;;;5.30;3.15;;;1.00;99.90;;;;;;5099230;28;20108;-65
2022/04/02 00:27:55;;;;;;;6.05;3.33;;;1.00;99.90;;;;;;5096419;28;20105;-64
2022/04/02 00:30:21;;;;;;;5.90;3.38;;;0.90;99.90;;;;;;5079280;28;20476;-63
2022/04/02 00:32:47;;;;;;;6.65;3.97;;;0.90;99.90;;;;;;5096402;28;20100;-64
2022/04/02 00:35:13;;;;;;;6.07;3.30;;;0.90;99.90;;;;;;5114096;28;20063;-64
2022/04/02 00:37:39;;;;;;;4.80;3.08;;;0.90;99.90;;;;;;5096215;28;20338;-64
2022/04/02 00:40:05;;;;;;;7.20;3.30;;;0.80;99.90;;;;;;5114407;28;20529;-64
2022/04/02 00:42:31;;;;;;;5.97;3.10;;;0.90;99.90;;;;;;5114096;28;20085;-64
2022/04/02 00:44:56;;;;;;;6.70;3.60;;;1.30;99.90;;;;;;5114071;28;20385;-64
2022/04/02 00:47:22;;;;;;;4.95;2.85;;;0.90;99.90;;;;;;5095855;28;20115;-62
2022/04/02 00:49:51;;;;;;;7.03;3.55;;;0.90;99.90;;;;;;5113992;28;20040;-64
2022/04/02 00:52:17;;;;;;;7.15;3.28;;;0.90;99.90;;;;;;5096177;28;20058;-64
2022/04/02 00:54:44;;;;;;;7.07;3.10;;;0.90;99.90;;;;;;5114160;28;20072;-64
2022/04/02 00:57:09;;;;;;;6.85;3.10;;;1.00;99.90;;;;;;5096284;28;20384;-65
2022/04/02 00:59:35;;;;;;;4.18;2.67;;;1.00;99.90;;;;;;5113831;28;20031;-64
2022/04/02 01:02:01;;;;;;;4.85;2.88;;;1.10;99.90;;;;;;5114046;28;20044;-64
2022/04/02 01:04:27;;;;;;;6.07;3.13;;;1.00;99.90;;;;;;5113645;28;20050;-64
2022/04/02 01:06:53;;;;;;;5.40;3.40;;;1.10;99.90;;;;;;5079101;28;20393;-65
2022/04/02 01:09:19;;;;;;;10.25;3.00;;;1.00;99.90;;;;;;5113595;28;20138;-64
2022/04/02 01:11:45;;;;;;;7.15;3.30;;;1.00;99.90;;;;;;5113964;28;20122;-64
2022/04/02 01:14:11;;;;;;;5.07;3.17;;;1.00;99.90;;;;;;5095296;28;20054;-64
2022/04/02 01:16:38;;;;;;;8.27;3.15;;;1.00;99.90;;;;;;5095347;28;20117;-65
2022/04/02 01:19:05;;;;;;;5.45;3.10;;;1.00;99.90;;;;;;5095779;28;20054;-64
2022/04/02 01:21:31;;;;;;;6.20;2.80;;;1.00;99.90;;;;;;5113120;28;20494;-64
2022/04/02 01:23:58;;;;;;;6.25;3.10;;;1.00;99.90;;;;;;5095469;28;20048;-64
2022/04/02 01:26:25;;;;;;;6.28;3.05;;;1.00;99.90;;;;;;5095131;28;20043;-63
2022/04/02 01:28:54;;;;;;;6.50;2.88;;;1.30;99.90;;;;;;5113585;28;20058;-64
2022/04/02 01:31:24;;;;;;;5.18;2.67;;;0.90;99.90;;;;;;5095182;28;20048;-64
2022/04/02 01:33:53;;;;;;;5.68;3.15;;;0.90;99.90;;;;;;5113692;28;20097;-64
2022/04/02 01:36:20;;;;;;;8.45;3.22;;;1.00;99.90;;;;;;5095470;28;20087;-65
2022/04/02 01:38:47;;;;;;;4.80;2.83;;;0.90;99.90;;;;;;5112277;28;20044;-64
2022/04/02 01:41:14;;;;;;;9.02;2.80;;;0.80;99.90;;;;;;5095122;28;20054;-64
2022/04/02 01:43:40;;;;;;;5.05;2.90;;;0.80;99.90;;;;;;5112906;28;20200;-64
2022/04/02 01:46:06;;;;;;;4.75;2.70;;;1.10;99.90;;;;;;5113244;28;20050;-64
2022/04/02 01:48:32;;;;;;;4.70;2.90;;;0.80;99.90;;;;;;5112356;28;20122;-64
2022/04/02 01:50:58;;;;;;;7.75;3.30;;;0.70;99.90;;;;;;5112683;28;20513;-64
2022/04/02 01:53:26;;;;;;;6.57;2.95;;;0.70;99.90;;;;;;5113314;28;20126;-64
2022/04/02 01:55:52;;;;;;;7.18;3.10;;;0.70;99.90;;;;;;5094603;28;20397;-64
2022/04/02 01:58:18;;;;;;;5.68;2.90;;;0.70;99.90;;;;;;5112876;28;20044;-65
2022/04/02 02:00:46;;;;;;;6.30;3.20;;;1.10;99.90;;;;;;5094276;28;20051;-64
2022/04/02 02:03:12;;;;;;;4.85;3.03;;;0.70;99.90;;;;;;5094741;28;20058;-64
2022/04/02 02:05:39;;;;;;;8.32;3.00;;;0.70;99.90;;;;;;5077591;28;20047;-64
2022/04/02 02:08:06;;;;;;;4.97;2.90;;;0.70;99.90;;;;;;5113099;28;20392;-64
2022/04/02 02:10:32;;;;;;;3.88;2.40;;;0.70;99.90;;;;;;5112432;28;20043;-65
2022/04/02 02:12:58;;;;;;;7.07;2.88;;;0.70;99.90;;;;;;5094363;28;20043;-63
2022/04/02 02:15:25;;;;;;;5.43;2.60;;;0.70;99.90;;;;;;5094679;28;20472;-65
2022/04/02 02:17:51;;;;;;;4.78;2.92;;;0.60;99.90;;;;;;5112245;28;20101;-65
2022/04/02 02:20:18;;;;;;;9.07;3.15;;;0.70;99.90;;;;;;5093977;28;20048;-65
2022/04/02 02:22:45;;;;;;;6.80;3.10;;;0.60;99.90;;;;;;5093839;28;20135;-64
2022/04/02 02:25:15;;;;;;;5.55;2.72;;;0.90;99.90;;;;;;5094591;28;20047;-64
2022/04/02 02:27:42;;;;;;;7.03;2.70;;;0.60;99.90;;;;;;5112095;28;20046;-64
2022/04/02 02:30:10;;;;;;;5.90;3.20;;;0.60;99.90;;;;;;5077316;28;20040;-63
2022/04/02 02:32:39;;;;;;;4.65;2.70;;;0.50;99.90;;;;;;5111940;28;20527;-64
2022/04/02 02:38:12;;;;;;;4.97;3.30;;;0.40;99.90;;;;;;5111823;28;20456;-65
2022/04/02 02:40:39;;;;;;;5.57;2.90;;;0.30;99.90;;;;;;5111634;28;20051;-64
2022/04/02 02:43:06;;;;;;;5.15;2.70;;;0.20;99.90;;;;;;5111540;28;20096;-65
2022/04/02 02:45:32;;;;;;;6.20;2.88;;;0.10;99.90;;;;;;5111824;28;20150;-64
2022/04/02 02:47:59;;;;;;;5.57;3.13;;;0.10;99.90;;;;;;5112000;28;20067;-63
2022/04/02 02:50:26;;;;;;;5.60;2.80;;;0.00;99.90;;;;;;5093303;28;20406;-65
2022/04/02 02:52:52;;;;;;;6.75;3.10;;;0.20;99.90;;;;;;5111705;28;20043;-64
2022/04/02 02:55:18;;;;;;;6.93;3.20;;;0.10;99.90;;;;;;5094000;28;20039;-64
2022/04/02 02:57:45;;;;;;;6.70;3.15;;;0.00;99.90;;;;;;5060256;28;20051;-65
2022/04/02 03:00:12;;;;;;;4.40;2.80;;;0.00;99.90;;;;;;5111710;28;20051;-63
2022/04/02 03:02:39;;;;;;;7.00;3.25;;;0.00;99.90;;;;;;5076621;28;20453;-64
2022/04/02 03:05:12;;;;;;;5.40;2.92;;;-0.10;99.90;;;;;;5093974;28;20127;-64
2022/04/02 03:07:39;;;;;;;7.60;3.33;;;-0.10;99.90;;;;;;5111507;28;20050;-64
2022/04/02 03:10:05;;;;;;;7.97;3.50;;;-0.10;99.90;;;;;;5093694;28;20039;-64
2022/04/02 03:12:33;;;;;;;8.48;3.05;;;-0.10;99.90;;;;;;5111718;28;20105;-64
2022/04/02 03:15:01;;;;;;;5.93;3.40;;;-0.10;99.90;;;;;;5093584;28;20043;-66
2022/04/02 03:17:29;;;;;;;10.80;3.13;;;-0.20;99.90;;;;;;5093634;28;20084;-63
2022/04/02 03:19:55;;;;;;;6.70;3.53;;;-0.20;99.90;;;;;;5093022;28;20123;-64
2022/04/02 03:22:21;;;;;;;9.48;3.33;;;0.00;99.90;;;;;;5112116;28;20480;-64
2022/04/02 03:24:47;;;;;;;7.03;3.45;;;-0.20;99.90;;;;;;5093253;28;20087;-65
2022/04/02 03:27:12;;;;;;;12.13;3.50;;;-0.20;99.90;;;;;;5112044;28;20086;-64
2022/04/02 03:29:38;;;;;;;6.13;2.97;;;0.70;99.90;;;;;;5093160;28;20043;-64
2022/04/02 03:32:04;;;;;;;7.80;3.65;;;-0.30;99.90;;;;;;5093386;28;20097;-65
2022/04/02 03:34:30;;;;;;;5.65;3.05;;;-0.30;99.90;;;;;;5093409;28;20048;-64
2022/04/02 03:36:55;;;;;;;5.70;3.13;;;-0.30;99.90;;;;;;5092986;28;20450;-63
2022/04/02 03:39:21;;;;;;;5.22;3.40;;;-0.40;99.90;;;;;;5093393;28;20083;-64
2022/04/02 03:41:48;;;;;;;9.07;3.60;;;0.20;99.90;;;;;;5093096;28;20039;-64
2022/04/02 03:44:13;;;;;;;8.57;3.25;;;-0.40;99.90;;;;;;5111365;28;20370;-64
2022/04/02 03:49:26;;;;;;;5.57;2.83;;;0.00;99.90;;;;;;5095970;28;20138;-64
2022/04/02 03:51:52;;;;;;;7.53;3.03;;;-0.10;99.90;;;;;;5110967;28;20051;-64
2022/04/02 03:54:18;;;;;;;5.75;2.80;;;-0.50;99.90;;;;;;5093340;28;20054;-65
2022/04/02 03:56:44;;;;;;;7.32;2.78;;;-0.50;99.90;;;;;;5093024;28;20513;-65
2022/04/02 03:59:11;;;;;;;6.72;2.92;;;0.10;99.90;;;;;;5111479;28;20048;-63
2022/04/02 04:01:38;;;;;;;6.63;2.85;;;-0.50;99.90;;;;;;5093749;28;20036;-63
2022/04/02 04:04:04;;;;;;;6.82;3.03;;;-0.10;99.90;;;;;;5115044;28;20040;-64
2022/04/02 04:06:31;;;;;;;4.85;2.90;;;-0.50;99.90;;;;;;5097149;28;20043;-64
2022/04/02 04:08:58;;;;;;;7.32;2.95;;;-0.50;99.90;;;;;;5096663;28;20044;-64
2022/04/02 04:11:26;;;;;;;7.53;2.92;;;-0.50;99.90;;;;;;5079931;28;20043;-64
2022/04/02 04:13:52;;;;;;;6.13;2.67;;;-0.50;99.90;;;;;;5114525;28;20047;-64
2022/04/02 04:16:18;;;;;;;6.88;2.90;;;-0.50;99.90;;;;;;5096919;28;20086;-63
2022/04/02 04:18:44;;;;;;;6.65;3.30;;;-0.50;99.90;;;;;;5079600;28;20488;-64
2022/04/02 04:21:11;;;;;;;7.95;2.97;;;-0.50;99.90;;;;;;5079812;28;20056;-64
2022/04/02 04:23:36;;;;;;;5.72;2.53;;;-0.50;99.90;;;;;;5079895;28;20477;-63
2022/04/02 04:26:02;;;;;;;7.13;2.22;;;-0.40;99.90;;;;;;5096383;28;20044;-64
2022/04/02 04:28:28;;;;;;;5.20;2.67;;;-0.30;99.90;;;;;;5114741;28;20047;-64
2022/04/02 04:30:54;;;;;;;7.35;2.85;;;-0.40;99.90;;;;;;5114339;28;20073;-65
2022/04/02 04:33:20;;;;;;;5.45;2.10;;;-0.40;99.90;;;;;;5096393;28;20370;-64
2022/04/02 04:35:46;;;;;;;6.47;2.63;;;-0.30;99.90;;;;;;5113982;28;20059;-64
2022/04/02 04:38:12;;;;;;;4.78;2.40;;;-0.30;99.90;;;;;;5114493;28;20043;-63
2022/04/02 04:40:38;;;;;;;6.35;2.58;;;-0.30;99.90;;;;;;5114463;28;20051;-64
2022/04/02 04:43:03;;;;;;;7.22;2.60;;;-0.20;99.90;;;;;;5095825;28;20444;-64
2022/04/02 04:45:29;;;;;;;5.28;2.58;;;-0.20;99.90;;;;;;5114322;28;20409;-64
2022/04/02 04:47:55;;;;;;;3.58;2.33;;;0.10;99.90;;;;;;5095441;28;20145;-66
2022/04/02 04:50:20;;;;;;;9.27;3.20;;;-0.10;99.90;;;;;;5096066;28;20043;-63
2022/04/02 04:52:46;;;;;;;6.15;3.25;;;0.00;99.90;;;;;;5096101;28;20138;-65
2022/04/02 04:55:12;;;;;;;7.07;2.80;;;0.20;99.90;;;;;;5079078;28;20457;-64
2022/04/02 04:57:37;;;;;;;6.85;2.83;;;0.30;99.90;;;;;;5096050;28;20040;-64
2022/04/02 05:00:05;;;;;;;5.82;2.88;;;0.40;99.90;;;;;;5095675;28;20036;-63
2022/04/02 05:02:31;;;;;;;4.20;2.78;;;0.50;99.90;;;;;;5079456;28;20397;-64
2022/04/02 05:04:57;;;;;;;5.22;2.90;;;0.50;99.90;;;;;;5078779;28;20062;-65
2022/04/02 05:07:23;;;;;;;8.20;2.72;;;0.70;99.90;;;;;;5113778;28;20043;-65
2022/04/02 05:09:49;;;;;;;7.82;3.05;;;0.50;99.90;;;;;;5113314;28;20131;-64
2022/04/02 05:12:15;;;;;;;6.20;2.92;;;0.50;99.90;;;;;;5113795;28;20146;-64
2022/04/02 05:14:41;;;;;;;4.25;2.80;;;0.50;99.90;;;;;;5094832;28;20054;-64
2022/04/02 05:17:07;;;;;;;6.45;2.75;;;0.50;99.90;;;;;;5113611;28;20047;-63
2022/04/02 05:19:33;;;;;;;5.18;3.20;;;0.50;99.90;;;;;;5113870;28;20050;-64
2022/04/02 05:22:01;;;;;;;5.28;2.75;;;1.10;99.90;;;;;;5113294;28;20358;-64
2022/04/02 05:24:27;;;;;;;6.18;2.95;;;0.50;99.90;;;;;;5113781;28;20055;-64
2022/04/02 05:26:52;;;;;;;5.72;3.15;;;0.50;99.90;;;;;;5095415;28;20047;-64
2022/04/02 05:29:18;;;;;;;5.63;2.90;;;0.50;99.90;;;;;;5078644;28;20051;-65
2022/04/02 05:31:44;;;;;;;7.10;3.08;;;0.50;99.90;;;;;;5113533;28;20122;-63
2022/04/02 05:34:11;;;;;;;6.20;3.33;;;0.60;99.90;;;;;;5113191;28;20046;-64
2022/04/02 05:36:41;;;;;;;7.25;3.38;;;0.60;99.90;;;;;;5113563;28;20047;-64
2022/04/02 05:39:07;;;;;;;5.43;3.05;;;1.00;99.90;;;;;;5113222;28;20051;-66
2022/04/02 05:41:32;;;;;;;6.55;3.08;;;0.70;99.90;;;;;;5113498;28;20406;-65
2022/04/02 05:43:58;;;;;;;5.55;3.00;;;0.80;99.90;;;;;;5113238;28;20047;-66
2022/04/02 05:46:24;;;;;;;6.00;2.97;;;0.70;99.90;;;;;;5095154;28;20040;-64
2022/04/02 05:48:49;;;;;;;7.57;3.55;;;0.90;99.90;;;;;;5095430;28;20043;-64
2022/04/02 05:51:15;;;;;;;5.72;2.83;;;1.00;99.90;;;;;;5061415;28;20126;-64
2022/04/02 05:53:41;;;;;;;7.45;3.17;;;1.10;99.90;;;;;;5113044;28;20067;-65
2022/04/02 05:56:07;;;;;;;5.20;2.78;;;1.90;99.90;;;;;;5078141;28;20100;-64
2022/04/02 05:58:33;;;;;;;4.43;2.45;;;1.10;99.90;;;;;;5113011;28;20048;-64
2022/04/02 06:00:59;;;;;;;5.47;2.80;;;1.40;99.90;;;;;;5094705;28;20062;-63
2022/04/02 06:03:25;;;;;;;5.00;2.58;;;1.50;99.90;;;;;;5112985;28;20501;-64
2022/04/02 06:05:51;;;;;;;6.75;2.35;;;1.20;99.90;;;;;;5112777;28;20058;-64
2022/04/02 06:08:17;;;;;;;9.45;2.40;;;1.50;99.90;;;;;;5112467;28;20079;-64
2022/04/02 06:10:44;;;;;;;7.05;2.65;;;1.60;99.90;;;;;;5113012;28;20090;-63
2022/04/02 06:13:10;;;;;;;7.07;2.53;;;1.30;99.90;;;;;;5112421;28;20048;-65
2022/04/02 06:15:35;;;;;;;4.78;2.58;;;1.40;99.90;;;;;;5112855;28;20039;-64
2022/04/02 06:18:01;;;;;;;5.70;2.80;;;1.40;99.90;;;;;;5112771;28;20415;-64
2022/04/02 06:20:27;;;;;;;4.95;2.65;;;1.40;99.90;;;;;;5094629;28;20062;-65
2022/04/02 06:22:53;;;;;;;5.60;2.17;;;1.40;99.90;;;;;;5094676;28;20063;-64
2022/04/02 06:25:19;;;;;;;5.53;2.75;;;1.40;99.90;;;;;;5093028;28;20047;-63
2022/04/02 06:27:46;;;;;;;4.65;2.25;;;1.40;99.90;;;;;;5094576;28;20039;-65
2022/04/02 06:30:22;;;;;;;3.83;2.10;;;2.10;99.90;;;;;;5112194;28;20050;-63
2022/04/02 06:32:47;;;;;;;4.80;2.55;;;1.40;99.90;;;;;;5112627;28;20046;-64
2022/04/02 06:35:13;;;;;;;5.68;2.53;;;2.20;99.90;;;;;;5112114;28;20044;-65
2022/04/02 06:37:40;;;;;;;5.40;2.55;;;1.40;99.90;;;;;;5112546;28;20131;-63
2022/04/02 06:40:11;;;;;;;5.45;2.70;;;1.40;99.90;;;;;;5112069;28;20050;-63
2022/04/02 06:42:37;;;;;;;4.28;2.25;;;1.50;99.90;;;;;;5112315;28;20100;-64
2022/04/02 06:45:04;;;;;;;4.80;2.60;;;1.50;99.90;;;;;;5111771;28;20130;-64
2022/04/02 06:47:31;;;;;;;8.27;2.67;;;1.80;99.90;;;;;;5112205;28;20039;-64
2022/04/02 06:49:57;;;;;;;5.00;2.35;;;2.00;99.90;;;;;;5112180;28;20507;-63
2022/04/02 06:52:23;;;;;;;5.43;2.10;;;2.10;99.90;;;;;;5111810;28;20057;-64
2022/04/02 06:54:50;;;;;;;6.32;2.65;;;2.10;99.90;;;;;;5094142;28;20481;-64
2022/04/02 06:57:22;;;;;;;6.30;2.25;;;2.10;99.90;;;;;;5093756;28;20126;-64
2022/04/02 06:59:48;;;;;;;5.10;2.30;;;2.10;99.90;;;;;;5112144;28;20048;-64
2022/04/02 07:02:19;;;;;;;3.70;2.17;;;2.00;99.90;;;;;;5111542;28;20043;-64
2022/04/02 07:04:45;;;;;;;5.50;2.20;;;2.00;99.90;;;;;;5094044;28;20066;-64
2022/04/02 07:07:11;;;;;;;8.07;3.08;;;1.90;99.90;;;;;;5093208;28;20040;-64
2022/04/02 07:09:37;;;;;;;5.40;2.38;;;1.90;99.90;;;;;;5093829;28;20054;-63
2022/04/02 07:12:03;;;;;;;5.50;2.60;;;1.90;99.90;;;;;;5111422;28;20550;-64
2022/04/02 07:14:29;;;;;;;4.72;2.00;;;1.90;99.90;;;;;;5112270;28;20649;-64
2022/04/02 07:16:55;;;;;;;5.13;1.90;;;1.80;99.90;;;;;;5111823;28;20047;-62
2022/04/02 07:19:22;;;;;;;5.82;1.90;;;1.80;99.90;;;;;;5076555;28;20107;-63
2022/04/02 07:21:51;;;;;;;3.30;1.90;;;1.60;99.90;;;;;;5093323;28;20060;-64
2022/04/02 07:24:18;;;;;;;4.78;1.98;;;1.50;99.90;;;;;;5111438;28;20063;-64
2022/04/02 07:26:47;;;;;;;8.45;2.00;;;1.40;99.90;;;;;;5093851;28;20209;-66
2022/04/02 07:29:14;;;;;;;5.32;2.30;;;1.40;99.90;;;;;;5076561;28;20052;-63
2022/04/02 07:31:44;;;;;;;4.40;2.22;;;1.30;99.90;;;;;;5093509;28;20044;-64
2022/04/02 07:34:11;;;;;;;4.55;2.05;;;1.40;99.90;;;;;;5111771;28;20390;-64
2022/04/02 07:36:51;;;;;;;3.15;1.75;;;1.40;99.90;;;;;;5094056;28;20477;-64
2022/04/02 07:39:36;;;;;;;5.38;1.90;;;1.50;99.90;;;;;;5115873;28;20049;-63
2022/04/02 07:42:11;;;;;;;5.47;2.08;;;1.50;99.90;;;;;;5115614;28;20134;-64
2022/04/02 07:44:55;;;;;;;4.68;2.50;;;1.60;99.90;;;;;;5115682;28;20055;-64
2022/04/02 07:47:24;;;;;;;5.03;2.20;;;1.60;99.90;;;;;;5080451;28;20211;-65
2022/04/02 07:49:54;;;;;;;6.15;2.22;;;1.70;99.90;;;;;;5097244;28;20055;-63
2022/04/02 07:52:22;;;;;;;4.03;2.10;;;1.90;99.90;;;;;;5115147;28;20047;-65
2022/04/02 07:54:55;;;;;;;4.82;1.83;;;2.10;99.90;;;;;;5115700;28;20054;-62
2022/04/02 07:57:27;;;;;;;4.05;2.13;;;2.50;99.90;;;;;;5097349;28;20545;-64
2022/04/02 07:59:59;;;;;;;4.25;2.10;;;2.80;99.90;;;;;;5097519;28;20050;-63
2022/04/02 08:02:38;;;;;;;4.28;1.85;;;3.30;99.90;;;;;;5115214;28;20050;-63
2022/04/02 08:05:07;;;;;;;3.78;2.03;;;4.20;99.90;;;;;;5115530;28;20147;-64
2022/04/02 08:07:35;;;;;;;3.30;1.60;;;5.10;99.90;;;;;;5096738;28;20097;-63
2022/04/02 08:10:06;;;;;;;3.95;1.70;;;5.90;99.90;;;;;;5114770;28;20370;-65
2022/04/02 08:12:36;;;;;;;3.58;1.70;;;6.30;99.90;;;;;;5114989;28;20431;-65
2022/04/02 08:15:05;;;;;;;2.60;1.52;;;6.80;99.90;;;;;;5097344;28;20052;-64
2022/04/02 08:17:31;;;;;;;3.90;1.65;;;7.10;99.90;;;;;;5079701;28;20392;-64
2022/04/02 08:19:59;;;;;;;5.30;1.70;;;7.40;99.90;;;;;;5096947;28;20078;-65
2022/04/02 08:22:25;;;;;;;2.97;1.67;;;7.60;99.90;;;;;;5114855;28;20056;-65
2022/04/02 08:24:51;;;;;;;3.53;1.92;;;7.60;99.90;;;;;;5115029;28;20395;-64
2022/04/02 08:27:40;;;;;;;3.63;1.83;;;7.80;99.90;;;;;;5096583;28;20052;-65
2022/04/02 08:30:07;;;;;;;4.60;1.85;;;7.60;99.90;;;;;;5114788;28;20135;-63
2022/04/02 08:32:54;;;;;;;3.20;1.38;;;7.60;99.90;;;;;;5114354;28;20309;-64
2022/04/02 08:35:27;;;;;;;3.95;1.77;;;7.50;99.90;;;;;;5096537;28;20043;-66
2022/04/02 08:38:13;;;;;;;3.13;1.50;;;7.50;99.90;;;;;;5114605;28;20504;-64
2022/04/02 08:41:12;;;;;;;4.80;1.60;;;7.90;99.90;;;;;;5114551;28;20047;-64
2022/04/02 08:44:16;;;;;;;4.47;1.88;;;8.10;99.90;;;;;;5113914;28;20115;-65
2022/04/02 08:47:05;;;;;;;3.50;1.58;;;8.30;99.90;;;;;;5114815;28;20044;-65
2022/04/02 08:49:41;;;;;;;3.35;1.60;;;8.80;99.90;;;;;;5112936;28;20127;-65
2022/04/02 08:52:20;;;;;;;4.43;1.48;;;9.30;99.70;;;;;;5114135;28;20051;-65
2022/04/02 08:54:57;;;;;;;5.28;1.58;;;9.50;97.70;;;;;;5096301;28;20043;-64
2022/04/02 08:57:32;;;;;;;4.55;1.48;;;9.60;97.90;;;;;;5113818;28;20083;-65
2022/04/02 09:00:08;;;;;;;3.17;1.38;;;9.50;94.50;;;;;;5114168;28;20046;-65
2022/04/02 09:02:52;;;;;;;6.35;1.45;;;9.60;94.80;;;;;;5095437;28;20163;-65
2022/04/02 09:05:21;;;;;;;3.08;1.48;;;9.60;94.20;;;;;;5095423;28;20059;-66
2022/04/02 09:08:13;;;;;;;2.22;1.42;;;9.60;94.80;;;;;;5095688;28;20035;-64
2022/04/02 09:11:12;;;;;;;5.32;1.77;;;9.60;95.00;;;;;;5095382;28;20651;-65
2022/04/02 09:13:59;;;;;;;4.07;1.40;;;9.70;92.80;;;;;;5113464;28;20123;-65
2022/04/02 09:16:49;;;;;;;2.75;1.30;;;10.30;93.10;;;;;;5078015;28;20047;-64
2022/04/02 09:19:29;;;;;;;3.95;1.55;;;10.10;90.40;;;;;;5095350;28;20481;-66
2022/04/02 09:21:57;;;;;;;4.65;1.58;;;9.50;93.10;;;;;;5095129;28;20051;-64
2022/04/02 09:24:37;;;;;;;4.60;1.70;;;9.10;92.70;;;;;;5113098;28;20054;-65
2022/04/02 09:27:21;;;;;;;4.13;1.63;;;9.00;91.10;;;;;;5113687;28;20132;-65
2022/04/02 09:29:56;;;;;;;4.72;1.50;;;8.70;91.70;;;;;;5113439;28;20092;-64
2022/04/02 09:32:43;;;;;;;4.43;1.73;;;8.10;92.10;;;;;;5113473;28;20446;-66
2022/04/02 09:35:45;;;;;;;4.88;1.67;;;8.00;93.10;;;;;;5095484;28;20073;-62
2022/04/02 09:38:37;;;;;;;4.97;1.77;;;7.80;92.50;;;;;;5113266;28;20562;-61
2022/04/02 09:41:16;;;;;;;4.22;1.83;;;7.50;93.00;;;;;;5113590;28;20040;-62
2022/04/02 09:44:04;;;;;;;3.22;1.70;;;7.20;93.80;;;;;;5113219;28;20059;-61
2022/04/02 09:46:46;;;;;;;3.88;1.65;;;7.00;93.20;;;;;;5077917;28;20386;-63
2022/04/02 09:49:27;;;;;;;3.05;1.50;;;7.00;94.50;;;;;;5095311;28;20050;-63
2022/04/02 09:52:05;;;;;;;2.97;1.40;;;6.90;95.00;;;;;;5113326;28;20047;-62
2022/04/02 09:54:58;;;;;;;4.63;1.60;;;7.00;94.90;;;;;;5077577;28;20151;-62
2022/04/02 09:58:04;;;;;;;3.58;2.17;;;6.90;94.80;;;;;;5094010;28;20055;-62
2022/04/02 10:01:05;;;;;;;4.85;1.60;;;6.70;94.30;;;;;;5098809;28;20051;-63
2022/04/02 10:04:05;;;;;;;4.30;1.77;;;6.60;94.30;;;;;;5094736;28;20056;-63
2022/04/02 10:06:38;;;;;;;4.97;1.63;;;6.60;94.50;;;;;;5112661;28;20044;-62
2022/04/02 10:09:12;;;;;;;3.33;1.65;;;6.70;93.80;;;;;;5094474;28;20079;-63
2022/04/02 10:11:53;;;;;;;4.75;1.88;;;6.70;94.20;;;;;;5093657;28;20043;-64
2022/04/02 10:14:22;;;;;;;3.90;1.70;;;6.70;95.30;;;;;;5112858;28;20051;-63
2022/04/02 10:16:56;;;;;;;13.25;2.42;;;6.80;95.40;;;;;;5112116;28;20132;-62
2022/04/02 10:19:28;;;;;;;6.57;1.65;;;7.00;94.60;;;;;;5112445;28;20052;-62
2022/04/02 10:21:57;;;;;;;3.25;1.45;;;7.10;94.10;;;;;;5109962;28;20047;-63
2022/04/02 10:24:25;;;;;;;3.10;1.60;;;7.20;92.80;;;;;;5111226;28;20051;-62
2022/04/02 10:27:02;;;;;;;1.73;1.20;;;7.40;92.80;;;;;;5093748;28;20070;-64
2022/04/02 10:29:44;;;;;;;5.60;1.83;;;7.30;93.10;;;;;;5093841;28;20055;-63
2022/04/02 10:32:32;;;;;;;3.45;1.65;;;7.30;92.60;;;;;;5094348;28;20051;-64
2022/04/02 10:35:07;;;;;;;4.63;2.05;;;7.30;93.20;;;;;;5078360;28;20117;-63
2022/04/02 10:37:43;;;;;;;3.33;1.58;;;7.30;92.50;;;;;;5111711;28;20442;-63
2022/04/02 10:40:11;;;;;;;3.22;1.92;;;7.30;93.50;;;;;;5111763;28;20050;-62
2022/04/02 10:42:40;;;;;;;4.53;1.60;;;7.40;92.60;;;;;;5076733;28;20492;-63
2022/04/02 10:45:14;;;;;;;2.67;1.40;;;7.30;92.20;;;;;;5111375;28;20122;-65
2022/04/02 10:47:56;;;;;;;6.03;1.80;;;7.20;91.80;;;;;;5090886;28;20043;-64
2022/04/02 10:50:22;;;;;;;5.07;1.85;;;7.00;91.30;;;;;;5111119;28;20048;-64
2022/04/02 10:52:49;;;;;;;3.50;1.60;;;6.90;90.70;;;;;;5111399;28;20047;-63
2022/04/02 10:55:22;;;;;;;6.95;1.48;;;7.10;90.90;;;;;;5093846;28;20142;-62
2022/04/02 10:57:48;;;;;;;3.97;1.60;;;7.10;90.60;;;;;;5111122;28;20083;-64
2022/04/02 11:00:14;;;;;;;3.95;1.50;;;7.30;90.30;;;;;;5111778;28;20069;-63
2022/04/02 11:02:45;;;;;;;3.40;1.42;;;7.40;90.50;;;;;;5111176;28;20065;-63
2022/04/02 11:05:14;;;;;;;2.63;1.40;;;7.50;90.60;;;;;;5111516;28;20044;-63
2022/04/02 11:07:49;;;;;;;5.72;1.75;;;7.60;90.20;;;;;;5111062;28;20054;-63
2022/04/02 11:10:16;;;;;;;3.72;1.67;;;7.30;90.80;;;;;;5111543;28;20378;-63
2022/04/02 11:12:46;;;;;;;4.80;1.80;;;7.30;90.50;;;;;;5108721;28;20051;-64
2022/04/02 11:15:24;;;;;;;2.58;1.42;;;7.30;90.50;;;;;;5111772;28;20540;-63
2022/04/02 11:17:54;;;;;;;6.78;2.08;;;7.30;90.30;;;;;;5111178;28;20481;-63
2022/04/02 11:20:26;;;;;;;3.80;1.50;;;7.20;90.20;;;;;;5093515;28;20413;-63
2022/04/02 11:22:52;;;;;;;3.95;1.38;;;7.30;90.70;;;;;;5110756;28;20056;-62
2022/04/02 11:25:17;;;;;;;4.18;1.70;;;7.40;90.20;;;;;;5109999;28;20088;-63
2022/04/02 11:27:48;;;;;;;3.17;1.55;;;7.50;90.30;;;;;;5111445;28;20048;-64
2022/04/02 11:30:16;;;;;;;3.70;1.58;;;7.80;90.60;;;;;;5093529;28;20427;-63
2022/04/02 11:32:45;;;;;;;4.78;1.60;;;7.90;90.30;;;;;;5109378;28;20108;-64
2022/04/02 11:35:23;;;;;;;4.10;1.80;;;7.70;88.50;;;;;;5111482;28;20043;-63
2022/04/02 11:38:10;;;;;;;3.75;1.55;;;7.40;90.90;;;;;;5111223;28;20052;-64
2022/04/02 11:40:43;;;;;;;3.63;1.40;;;7.30;91.10;;;;;;5111298;28;20047;-63
2022/04/02 11:43:09;;;;;;;3.63;1.48;;;7.20;89.60;;;;;;5111484;28;20047;-65
2022/04/02 11:45:36;;;;;;;4.88;1.50;;;7.00;89.10;;;;;;5111416;28;20050;-63
2022/04/02 11:48:14;;;;;;;3.88;1.48;;;7.00;88.50;;;;;;5110434;28;20043;-63
2022/04/02 11:50:45;;;;;;;4.20;1.65;;;6.80;91.50;;;;;;5111080;28;20046;-63
2022/04/02 11:53:12;;;;;;;2.53;1.55;;;6.70;91.50;;;;;;5109805;28;20093;-61
2022/04/02 11:55:40;;;;;;;4.50;1.95;;;6.60;91.20;;;;;;5111472;28;20063;-62
2022/04/02 11:58:12;;;;;;;3.60;1.50;;;6.70;93.00;;;;;;5111093;28;20059;-62
2022/04/02 12:00:44;;;;;;;2.95;1.60;;;6.70;94.10;;;;;;5093465;28;20054;-62
2022/04/02 12:03:24;;;;;;;4.15;1.90;;;6.60;94.30;;;;;;5111165;28;20051;-63
2022/04/02 12:05:51;;;;;;;5.95;1.83;;;6.50;95.30;;;;;;5110838;28;20369;-62
2022/04/02 12:08:30;;;;;;;3.38;1.75;;;6.50;94.80;;;;;;5111134;28;20044;-63
2022/04/02 12:11:00;;;;;;;2.45;1.50;;;6.50;94.00;;;;;;5092601;28;20503;-62
2022/04/02 12:13:27;;;;;;;4.07;1.60;;;6.60;92.70;;;;;;5111091;28;20059;-62
2022/04/02 12:16:09;;;;;;;3.38;1.60;;;6.50;92.90;;;;;;5092669;28;20043;-62
2022/04/02 12:18:57;;;;;;;3.90;1.75;;;6.40;93.90;;;;;;5092714;28;20040;-63
2022/04/02 12:21:34;;;;;;;5.47;1.40;;;6.40;92.90;;;;;;5092933;28;20058;-63
2022/04/02 12:24:02;;;;;;;5.20;1.77;;;6.50;93.30;;;;;;5113028;28;20051;-65
2022/04/02 12:26:29;;;;;;;2.30;1.25;;;6.60;93.70;;;;;;5096731;28;20048;-62
2022/04/02 12:29:00;;;;;;;5.25;1.90;;;6.60;93.00;;;;;;5095740;28;20112;-62
2022/04/02 12:31:27;;;;;;;5.65;1.85;;;6.50;93.40;;;;;;5114660;28;20075;-61
2022/04/02 12:33:54;;;;;;;2.42;1.60;;;6.50;93.60;;;;;;5114036;28;20083;-62
2022/04/02 12:36:59;;;;;;;3.75;1.52;;;6.50;94.00;;;;;;5114769;28;20047;-63
2022/04/02 12:39:25;;;;;;;4.95;1.73;;;6.50;92.20;;;;;;5081412;28;20064;-62
2022/04/02 12:41:51;;;;;;;5.22;1.65;;;6.50;93.10;;;;;;5096153;28;20090;-63
2022/04/02 12:44:23;;;;;;;4.18;1.67;;;6.70;92.20;;;;;;5114197;28;20093;-64
2022/04/02 12:46:51;;;;;;;2.53;1.50;;;6.80;91.70;;;;;;5113742;28;20054;-62
2022/04/02 12:49:46;;;;;;;3.95;1.38;;;6.90;91.40;;;;;;5114306;28;20047;-63
2022/04/02 12:52:17;;;;;;;1.95;1.25;;;6.90;84.50;;;;;;5074703;28;20104;-63
2022/04/02 12:54:50;;;;;;;5.07;1.40;;;6.90;81.90;;;;;;5113983;28;20119;-62
2022/04/02 12:57:17;;;;;;;4.55;1.50;;;6.80;83.70;;;;;;5095703;28;20130;-62
2022/04/02 12:59:50;;;;;;;4.43;1.60;;;6.80;88.20;;;;;;5096048;28;20048;-62
2022/04/02 13:02:20;;;;;;;4.47;1.80;;;6.70;90.40;;;;;;5096168;28;20500;-63
2022/04/02 13:04:57;;;;;;;2.78;1.45;;;6.70;90.20;;;;;;5095847;28;20378;-62
2022/04/02 13:07:23;;;;;;;2.55;1.45;;;6.70;81.50;;;;;;5113811;28;20069;-62
2022/04/02 13:09:53;;;;;;;5.07;1.40;;;6.90;84.10;;;;;;5113579;28;20090;-63
2022/04/02 13:12:23;;;;;;;3.22;1.40;;;6.90;85.80;;;;;;5094803;28;20052;-62
2022/04/02 13:14:58;;;;;;;3.53;1.38;;;6.90;84.00;;;;;;5113669;28;20145;-63
2022/04/02 13:17:26;;;;;;;4.28;1.25;;;6.90;82.60;;;;;;5095084;28;20043;-62